sensor_id;sensor_type;location;lat;lon;timestamp;P1;durP1;ratioP1;P2;durP2;ratioP2
62927;SDS011;51070;52.236;-0.892;2022-11-15T00:01:44;3.00;;;1.40;;
62927;SDS011;51070;52.236;-0.892;2022-11-15T00:04:11;5.80;;;1.40;;
62927;SDS011;51070;52.236;-0.892;2022-11-15T00:06:36;2.50;;;1.40;;
62927;SDS011;51070;52.236;-0.892;2022-11-15T00:09:02;4.70;;;1.40;;
62927;SDS011;51070;52.236;-0.892;2022-11-15T00:11:28;4.40;;;1.30;;
62927;SDS011;51070;52.236;-0.892;2022-11-15T00:13:57;2.00;;;1.30;;
62927;SDS011;51070;52.236;-0.892;2022-11-15T00:16:23;4.20;;;1.70;;
62927;SDS011;51070;52.236;-0.892;2022-11-15T00:18:49;7.30;;;1.80;;
62927;SDS011;51070;52.236;-0.892;2022-11-15T00:21:15;3.20;;;1.20;;
62927;SDS011;51070;52.236;-0.892;2022-11-15T00:23:41;2.10;;;1.40;;
62927;SDS011;51070;52.236;-0.892;2022-11-15T00:26:08;5.00;;;1.40;;
62927;SDS011;51070;52.236;-0.892;2022-11-15T00:28:37;2.50;;;1.30;;
62927;SDS011;51070;52.236;-0.892;2022-11-15T00:31:03;5.20;;;1.30;;
62927;SDS011;51070;52.236;-0.892;2022-11-15T00:33:30;2.30;;;1.40;;
62927;SDS011;51070;52.236;-0.892;2022-11-15T00:36:00;3.30;;;1.30;;
62927;SDS011;51070;52.236;-0.892;2022-11-15T00:38:31;2.40;;;1.20;;
62927;SDS011;51070;52.236;-0.892;2022-11-15T00:40:57;5.60;;;1.50;;
62927;SDS011;51070;52.236;-0.892;2022-11-15T00:43:23;3.30;;;1.70;;
62927;SDS011;51070;52.236;-0.892;2022-11-15T00:45:48;4.00;;;1.30;;
62927;SDS011;51070;52.236;-0.892;2022-11-15T00:48:14;6.90;;;1.90;;
62927;SDS011;51070;52.236;-0.892;2022-11-15T00:50:39;4.30;;;2.00;;
62927;SDS011;51070;52.236;-0.892;2022-11-15T00:53:05;2.90;;;1.10;;
62927;SDS011;51070;52.236;-0.892;2022-11-15T00:55:30;3.70;;;1.20;;
62927;SDS011;51070;52.236;-0.892;2022-11-15T00:57:55;5.80;;;1.40;;
62927;SDS011;51070;52.236;-0.892;2022-11-15T01:00:21;1.50;;;1.10;;
62927;SDS011;51070;52.236;-0.892;2022-11-15T01:02:46;2.20;;;1.10;;
62927;SDS011;51070;52.236;-0.892;2022-11-15T01:05:12;4.60;;;1.60;;
62927;SDS011;51070;52.236;-0.892;2022-11-15T01:07:37;5.50;;;1.00;;
62927;SDS011;51070;52.236;-0.892;2022-11-15T01:10:03;4.90;;;1.20;;
62927;SDS011;51070;52.236;-0.892;2022-11-15T01:12:29;3.40;;;1.00;;
62927;SDS011;51070;52.236;-0.892;2022-11-15T01:14:55;6.70;;;1.20;;
62927;SDS011;51070;52.236;-0.892;2022-11-15T01:17:21;9.20;;;1.30;;
62927;SDS011;51070;52.236;-0.892;2022-11-15T01:19:46;7.50;;;1.20;;
62927;SDS011;51070;52.236;-0.892;2022-11-15T01:22:11;5.90;;;1.10;;
62927;SDS011;51070;52.236;-0.892;2022-11-15T01:24:37;1.50;;;0.90;;
62927;SDS011;51070;52.236;-0.892;2022-11-15T01:27:02;4.60;;;1.30;;
62927;SDS011;51070;52.236;-0.892;2022-11-15T01:29:28;3.10;;;1.10;;
62927;SDS011;51070;52.236;-0.892;2022-11-15T01:31:53;3.20;;;1.00;;
62927;SDS011;51070;52.236;-0.892;2022-11-15T01:34:19;2.10;;;0.70;;
62927;SDS011;51070;52.236;-0.892;2022-11-15T01:36:44;3.80;;;1.10;;
62927;SDS011;51070;52.236;-0.892;2022-11-15T01:39:10;5.80;;;1.30;;
62927;SDS011;51070;52.236;-0.892;2022-11-15T01:41:35;4.30;;;0.70;;
62927;SDS011;51070;52.236;-0.892;2022-11-15T01:47:10;6.50;;;1.60;;
62927;SDS011;51070;52.236;-0.892;2022-11-15T01:49:42;5.30;;;1.00;;
62927;SDS011;51070;52.236;-0.892;2022-11-15T01:52:17;3.40;;;1.00;;
62927;SDS011;51070;52.236;-0.892;2022-11-15T01:54:46;1.80;;;1.00;;
62927;SDS011;51070;52.236;-0.892;2022-11-15T01:57:15;3.50;;;1.20;;
62927;SDS011;51070;52.236;-0.892;2022-11-15T01:59:42;5.70;;;1.50;;
62927;SDS011;51070;52.236;-0.892;2022-11-15T02:02:10;7.10;;;1.20;;
62927;SDS011;51070;52.236;-0.892;2022-11-15T02:04:40;3.60;;;1.10;;
62927;SDS011;51070;52.236;-0.892;2022-11-15T02:07:08;7.10;;;1.20;;
62927;SDS011;51070;52.236;-0.892;2022-11-15T02:09:36;3.10;;;1.00;;
62927;SDS011;51070;52.236;-0.892;2022-11-15T02:12:03;4.60;;;1.60;;
62927;SDS011;51070;52.236;-0.892;2022-11-15T02:14:30;4.00;;;1.40;;
62927;SDS011;51070;52.236;-0.892;2022-11-15T02:17:02;2.40;;;1.20;;
62927;SDS011;51070;52.236;-0.892;2022-11-15T02:28:26;1.40;;;0.80;;
62927;SDS011;51070;52.236;-0.892;2022-11-15T02:39:40;2.90;;;1.00;;
62927;SDS011;51070;52.236;-0.892;2022-11-15T02:42:17;3.80;;;1.10;;
62927;SDS011;51070;52.236;-0.892;2022-11-15T02:45:09;3.20;;;1.10;;
62927;SDS011;51070;52.236;-0.892;2022-11-15T02:47:43;3.60;;;1.30;;
62927;SDS011;51070;52.236;-0.892;2022-11-15T02:50:11;5.10;;;1.10;;
62927;SDS011;51070;52.236;-0.892;2022-11-15T02:52:39;4.60;;;1.00;;
62927;SDS011;51070;52.236;-0.892;2022-11-15T02:55:05;4.40;;;0.90;;
62927;SDS011;51070;52.236;-0.892;2022-11-15T03:00:16;6.30;;;1.00;;
62927;SDS011;51070;52.236;-0.892;2022-11-15T03:08:49;1.40;;;0.90;;
62927;SDS011;51070;52.236;-0.892;2022-11-15T03:11:19;2.20;;;0.70;;
62927;SDS011;51070;52.236;-0.892;2022-11-15T03:19:04;3.00;;;0.90;;
62927;SDS011;51070;52.236;-0.892;2022-11-15T03:21:46;2.20;;;1.00;;
62927;SDS011;51070;52.236;-0.892;2022-11-15T03:24:14;3.70;;;1.70;;
62927;SDS011;51070;52.236;-0.892;2022-11-15T03:26:43;2.50;;;1.10;;
62927;SDS011;51070;52.236;-0.892;2022-11-15T03:29:14;3.90;;;0.90;;
62927;SDS011;51070;52.236;-0.892;2022-11-15T03:31:46;2.50;;;1.20;;
62927;SDS011;51070;52.236;-0.892;2022-11-15T03:37:03;4.00;;;1.30;;
62927;SDS011;51070;52.236;-0.892;2022-11-15T03:39:30;4.60;;;0.80;;
62927;SDS011;51070;52.236;-0.892;2022-11-15T03:42:15;12.90;;;1.30;;
62927;SDS011;51070;52.236;-0.892;2022-11-15T03:44:46;7.10;;;1.40;;
62927;SDS011;51070;52.236;-0.892;2022-11-15T03:47:34;8.10;;;1.30;;
62927;SDS011;51070;52.236;-0.892;2022-11-15T03:50:08;3.60;;;1.20;;
62927;SDS011;51070;52.236;-0.892;2022-11-15T03:52:38;5.50;;;1.30;;
62927;SDS011;51070;52.236;-0.892;2022-11-15T03:55:07;4.10;;;1.30;;
62927;SDS011;51070;52.236;-0.892;2022-11-15T03:57:35;2.90;;;1.20;;
62927;SDS011;51070;52.236;-0.892;2022-11-15T04:00:02;6.10;;;1.40;;
62927;SDS011;51070;52.236;-0.892;2022-11-15T04:02:28;2.00;;;0.90;;
62927;SDS011;51070;52.236;-0.892;2022-11-15T04:04:54;2.50;;;0.90;;
62927;SDS011;51070;52.236;-0.892;2022-11-15T04:07:19;7.70;;;1.10;;
62927;SDS011;51070;52.236;-0.892;2022-11-15T04:09:45;7.00;;;1.30;;
62927;SDS011;51070;52.236;-0.892;2022-11-15T04:12:32;5.80;;;1.50;;
62927;SDS011;51070;52.236;-0.892;2022-11-15T04:15:04;5.50;;;1.20;;
62927;SDS011;51070;52.236;-0.892;2022-11-15T04:17:32;14.00;;;1.30;;
62927;SDS011;51070;52.236;-0.892;2022-11-15T04:20:03;4.10;;;1.20;;
62927;SDS011;51070;52.236;-0.892;2022-11-15T04:22:51;3.20;;;0.90;;
62927;SDS011;51070;52.236;-0.892;2022-11-15T04:25:36;4.90;;;2.20;;
62927;SDS011;51070;52.236;-0.892;2022-11-15T04:28:02;3.50;;;1.10;;
62927;SDS011;51070;52.236;-0.892;2022-11-15T04:30:27;13.30;;;1.50;;
62927;SDS011;51070;52.236;-0.892;2022-11-15T04:32:53;5.70;;;1.40;;
62927;SDS011;51070;52.236;-0.892;2022-11-15T04:35:18;7.20;;;2.30;;
62927;SDS011;51070;52.236;-0.892;2022-11-15T04:37:43;4.70;;;0.90;;
62927;SDS011;51070;52.236;-0.892;2022-11-15T04:40:09;4.40;;;1.00;;
62927;SDS011;51070;52.236;-0.892;2022-11-15T04:42:35;4.20;;;0.90;;
62927;SDS011;51070;52.236;-0.892;2022-11-15T04:45:00;4.70;;;1.30;;
62927;SDS011;51070;52.236;-0.892;2022-11-15T04:47:26;2.20;;;1.00;;
62927;SDS011;51070;52.236;-0.892;2022-11-15T04:49:53;5.00;;;1.00;;
62927;SDS011;51070;52.236;-0.892;2022-11-15T04:52:18;5.50;;;1.20;;
62927;SDS011;51070;52.236;-0.892;2022-11-15T04:54:43;1.90;;;1.00;;
62927;SDS011;51070;52.236;-0.892;2022-11-15T04:57:09;10.00;;;1.80;;
62927;SDS011;51070;52.236;-0.892;2022-11-15T04:59:35;6.80;;;1.30;;
62927;SDS011;51070;52.236;-0.892;2022-11-15T05:02:00;3.90;;;1.30;;
62927;SDS011;51070;52.236;-0.892;2022-11-15T05:04:28;6.30;;;1.40;;
62927;SDS011;51070;52.236;-0.892;2022-11-15T05:09:19;8.70;;;1.60;;
62927;SDS011;51070;52.236;-0.892;2022-11-15T05:11:45;3.70;;;1.00;;
62927;SDS011;51070;52.236;-0.892;2022-11-15T05:14:12;2.70;;;1.10;;
62927;SDS011;51070;52.236;-0.892;2022-11-15T05:16:38;3.10;;;0.90;;
62927;SDS011;51070;52.236;-0.892;2022-11-15T05:19:03;6.20;;;1.80;;
62927;SDS011;51070;52.236;-0.892;2022-11-15T05:21:30;7.40;;;2.20;;
62927;SDS011;51070;52.236;-0.892;2022-11-15T05:23:56;7.10;;;1.50;;
62927;SDS011;51070;52.236;-0.892;2022-11-15T05:26:21;4.60;;;0.90;;
62927;SDS011;51070;52.236;-0.892;2022-11-15T05:28:51;2.90;;;1.30;;
62927;SDS011;51070;52.236;-0.892;2022-11-15T05:31:20;4.70;;;1.20;;
62927;SDS011;51070;52.236;-0.892;2022-11-15T05:33:46;7.40;;;2.00;;
62927;SDS011;51070;52.236;-0.892;2022-11-15T05:38:40;5.80;;;1.30;;
62927;SDS011;51070;52.236;-0.892;2022-11-15T05:41:06;3.50;;;1.30;;
62927;SDS011;51070;52.236;-0.892;2022-11-15T05:43:33;3.90;;;0.90;;
62927;SDS011;51070;52.236;-0.892;2022-11-15T05:46:02;6.10;;;1.60;;
62927;SDS011;51070;52.236;-0.892;2022-11-15T05:48:29;2.70;;;1.00;;
62927;SDS011;51070;52.236;-0.892;2022-11-15T05:50:55;6.80;;;2.60;;
62927;SDS011;51070;52.236;-0.892;2022-11-15T05:53:21;5.90;;;1.10;;
62927;SDS011;51070;52.236;-0.892;2022-11-15T05:55:49;7.70;;;2.10;;
62927;SDS011;51070;52.236;-0.892;2022-11-15T05:58:16;5.90;;;1.20;;
62927;SDS011;51070;52.236;-0.892;2022-11-15T06:00:45;4.40;;;1.20;;
62927;SDS011;51070;52.236;-0.892;2022-11-15T06:03:11;6.50;;;1.10;;
62927;SDS011;51070;52.236;-0.892;2022-11-15T06:05:39;4.30;;;1.20;;
62927;SDS011;51070;52.236;-0.892;2022-11-15T06:08:05;7.50;;;1.40;;
62927;SDS011;51070;52.236;-0.892;2022-11-15T06:10:30;6.10;;;1.00;;
62927;SDS011;51070;52.236;-0.892;2022-11-15T06:12:59;7.60;;;1.10;;
62927;SDS011;51070;52.236;-0.892;2022-11-15T06:15:26;4.20;;;1.60;;
62927;SDS011;51070;52.236;-0.892;2022-11-15T06:17:52;6.80;;;1.30;;
62927;SDS011;51070;52.236;-0.892;2022-11-15T06:20:22;5.20;;;1.10;;
62927;SDS011;51070;52.236;-0.892;2022-11-15T06:22:48;6.80;;;1.50;;
62927;SDS011;51070;52.236;-0.892;2022-11-15T06:25:13;4.40;;;1.70;;
62927;SDS011;51070;52.236;-0.892;2022-11-15T06:27:39;8.40;;;1.70;;
62927;SDS011;51070;52.236;-0.892;2022-11-15T06:30:04;6.90;;;1.40;;
62927;SDS011;51070;52.236;-0.892;2022-11-15T06:32:30;4.10;;;1.30;;
62927;SDS011;51070;52.236;-0.892;2022-11-15T06:34:56;8.40;;;1.60;;
62927;SDS011;51070;52.236;-0.892;2022-11-15T06:37:21;8.00;;;1.30;;
62927;SDS011;51070;52.236;-0.892;2022-11-15T06:39:47;6.20;;;1.20;;
62927;SDS011;51070;52.236;-0.892;2022-11-15T06:42:12;9.20;;;1.50;;
62927;SDS011;51070;52.236;-0.892;2022-11-15T06:44:37;12.10;;;3.20;;
62927;SDS011;51070;52.236;-0.892;2022-11-15T06:47:03;4.00;;;1.30;;
62927;SDS011;51070;52.236;-0.892;2022-11-15T06:49:28;3.90;;;1.00;;
62927;SDS011;51070;52.236;-0.892;2022-11-15T06:51:53;6.20;;;1.20;;
62927;SDS011;51070;52.236;-0.892;2022-11-15T06:54:19;3.10;;;0.90;;
62927;SDS011;51070;52.236;-0.892;2022-11-15T06:56:46;5.70;;;1.30;;
62927;SDS011;51070;52.236;-0.892;2022-11-15T06:59:11;10.00;;;3.10;;
62927;SDS011;51070;52.236;-0.892;2022-11-15T07:01:36;6.20;;;1.40;;
62927;SDS011;51070;52.236;-0.892;2022-11-15T07:04:02;4.50;;;1.40;;
62927;SDS011;51070;52.236;-0.892;2022-11-15T07:06:27;5.30;;;1.20;;
62927;SDS011;51070;52.236;-0.892;2022-11-15T07:08:53;10.40;;;1.60;;
62927;SDS011;51070;52.236;-0.892;2022-11-15T07:11:18;4.20;;;1.20;;
62927;SDS011;51070;52.236;-0.892;2022-11-15T07:13:43;5.80;;;1.70;;
62927;SDS011;51070;52.236;-0.892;2022-11-15T07:16:09;5.10;;;1.40;;
62927;SDS011;51070;52.236;-0.892;2022-11-15T07:18:36;4.60;;;1.70;;
62927;SDS011;51070;52.236;-0.892;2022-11-15T07:21:03;6.80;;;1.80;;
62927;SDS011;51070;52.236;-0.892;2022-11-15T07:23:30;3.80;;;1.10;;
62927;SDS011;51070;52.236;-0.892;2022-11-15T07:25:57;6.70;;;1.40;;
62927;SDS011;51070;52.236;-0.892;2022-11-15T07:28:23;3.80;;;1.30;;
62927;SDS011;51070;52.236;-0.892;2022-11-15T07:30:50;6.30;;;1.40;;
62927;SDS011;51070;52.236;-0.892;2022-11-15T07:33:16;5.90;;;1.10;;
62927;SDS011;51070;52.236;-0.892;2022-11-15T07:35:41;3.20;;;1.10;;
62927;SDS011;51070;52.236;-0.892;2022-11-15T07:38:08;9.40;;;2.20;;
62927;SDS011;51070;52.236;-0.892;2022-11-15T07:40:33;5.80;;;1.20;;
62927;SDS011;51070;52.236;-0.892;2022-11-15T07:43:00;4.00;;;1.00;;
62927;SDS011;51070;52.236;-0.892;2022-11-15T07:45:26;4.10;;;1.30;;
62927;SDS011;51070;52.236;-0.892;2022-11-15T07:47:52;6.40;;;1.40;;
62927;SDS011;51070;52.236;-0.892;2022-11-15T07:50:18;5.80;;;1.80;;
62927;SDS011;51070;52.236;-0.892;2022-11-15T07:52:44;4.30;;;1.70;;
62927;SDS011;51070;52.236;-0.892;2022-11-15T07:55:10;2.90;;;1.20;;
62927;SDS011;51070;52.236;-0.892;2022-11-15T07:57:36;3.80;;;1.10;;
62927;SDS011;51070;52.236;-0.892;2022-11-15T08:00:03;2.50;;;1.10;;
62927;SDS011;51070;52.236;-0.892;2022-11-15T08:02:30;5.50;;;1.70;;
62927;SDS011;51070;52.236;-0.892;2022-11-15T08:04:56;2.70;;;1.10;;
62927;SDS011;51070;52.236;-0.892;2022-11-15T08:07:21;5.90;;;1.50;;
62927;SDS011;51070;52.236;-0.892;2022-11-15T08:09:47;5.10;;;1.60;;
62927;SDS011;51070;52.236;-0.892;2022-11-15T08:12:12;3.60;;;0.90;;
62927;SDS011;51070;52.236;-0.892;2022-11-15T08:14:39;4.10;;;1.50;;
62927;SDS011;51070;52.236;-0.892;2022-11-15T08:17:04;3.80;;;1.30;;
62927;SDS011;51070;52.236;-0.892;2022-11-15T08:19:29;4.40;;;1.30;;
62927;SDS011;51070;52.236;-0.892;2022-11-15T08:21:55;3.00;;;1.40;;
62927;SDS011;51070;52.236;-0.892;2022-11-15T08:24:20;1.40;;;0.90;;
62927;SDS011;51070;52.236;-0.892;2022-11-15T08:26:46;4.30;;;0.90;;
62927;SDS011;51070;52.236;-0.892;2022-11-15T08:29:11;2.60;;;0.90;;
62927;SDS011;51070;52.236;-0.892;2022-11-15T08:31:37;2.40;;;1.10;;
62927;SDS011;51070;52.236;-0.892;2022-11-15T08:34:03;1.60;;;0.90;;
62927;SDS011;51070;52.236;-0.892;2022-11-15T08:36:29;2.90;;;0.70;;
62927;SDS011;51070;52.236;-0.892;2022-11-15T08:38:55;1.80;;;0.60;;
62927;SDS011;51070;52.236;-0.892;2022-11-15T08:41:28;2.30;;;0.90;;
62927;SDS011;51070;52.236;-0.892;2022-11-15T08:43:56;1.00;;;0.70;;
62927;SDS011;51070;52.236;-0.892;2022-11-15T08:46:21;3.50;;;0.60;;
62927;SDS011;51070;52.236;-0.892;2022-11-15T08:48:47;2.40;;;0.70;;
62927;SDS011;51070;52.236;-0.892;2022-11-15T08:51:13;0.60;;;0.50;;
62927;SDS011;51070;52.236;-0.892;2022-11-15T08:53:39;2.20;;;0.60;;
62927;SDS011;51070;52.236;-0.892;2022-11-15T08:56:09;0.50;;;0.40;;
62927;SDS011;51070;52.236;-0.892;2022-11-15T08:58:35;1.40;;;0.70;;
62927;SDS011;51070;52.236;-0.892;2022-11-15T09:01:01;1.10;;;0.40;;
62927;SDS011;51070;52.236;-0.892;2022-11-15T09:03:29;1.10;;;0.60;;
62927;SDS011;51070;52.236;-0.892;2022-11-15T09:05:55;1.20;;;0.70;;
62927;SDS011;51070;52.236;-0.892;2022-11-15T09:08:22;1.40;;;0.60;;
62927;SDS011;51070;52.236;-0.892;2022-11-15T09:10:48;2.10;;;0.40;;
62927;SDS011;51070;52.236;-0.892;2022-11-15T09:13:13;0.40;;;0.30;;
62927;SDS011;51070;52.236;-0.892;2022-11-15T09:15:39;1.70;;;0.50;;
62927;SDS011;51070;52.236;-0.892;2022-11-15T09:18:04;2.10;;;0.70;;
62927;SDS011;51070;52.236;-0.892;2022-11-15T09:20:29;0.70;;;0.50;;
62927;SDS011;51070;52.236;-0.892;2022-11-15T09:22:58;0.90;;;0.60;;
62927;SDS011;51070;52.236;-0.892;2022-11-15T09:25:30;0.70;;;0.50;;
62927;SDS011;51070;52.236;-0.892;2022-11-15T09:27:57;1.10;;;0.40;;
62927;SDS011;51070;52.236;-0.892;2022-11-15T09:30:23;1.80;;;0.60;;
62927;SDS011;51070;52.236;-0.892;2022-11-15T09:32:50;0.30;;;0.30;;
62927;SDS011;51070;52.236;-0.892;2022-11-15T09:35:16;2.80;;;0.70;;
62927;SDS011;51070;52.236;-0.892;2022-11-15T09:37:41;0.60;;;0.30;;
62927;SDS011;51070;52.236;-0.892;2022-11-15T09:40:16;1.00;;;0.50;;
62927;SDS011;51070;52.236;-0.892;2022-11-15T09:42:48;0.80;;;0.40;;
62927;SDS011;51070;52.236;-0.892;2022-11-15T09:45:18;0.40;;;0.40;;
62927;SDS011;51070;52.236;-0.892;2022-11-15T09:47:54;0.90;;;0.40;;
62927;SDS011;51070;52.236;-0.892;2022-11-15T09:53:04;0.70;;;0.50;;
62927;SDS011;51070;52.236;-0.892;2022-11-15T09:55:46;0.30;;;0.30;;
62927;SDS011;51070;52.236;-0.892;2022-11-15T09:58:23;0.30;;;0.30;;
62927;SDS011;51070;52.236;-0.892;2022-11-15T10:00:50;0.40;;;0.30;;
62927;SDS011;51070;52.236;-0.892;2022-11-15T10:03:37;1.30;;;0.40;;
62927;SDS011;51070;52.236;-0.892;2022-11-15T10:06:13;1.20;;;0.30;;
62927;SDS011;51070;52.236;-0.892;2022-11-15T10:12:01;1.10;;;0.30;;
62927;SDS011;51070;52.236;-0.892;2022-11-15T10:14:28;0.30;;;0.30;;
62927;SDS011;51070;52.236;-0.892;2022-11-15T10:17:18;0.40;;;0.30;;
62927;SDS011;51070;52.236;-0.892;2022-11-15T10:22:50;0.80;;;0.60;;
62927;SDS011;51070;52.236;-0.892;2022-11-15T10:25:19;1.10;;;0.70;;
62927;SDS011;51070;52.236;-0.892;2022-11-15T10:30:47;0.50;;;0.40;;
62927;SDS011;51070;52.236;-0.892;2022-11-15T10:41:17;0.80;;;0.20;;
62927;SDS011;51070;52.236;-0.892;2022-11-15T10:46:20;0.10;;;0.10;;
62927;SDS011;51070;52.236;-0.892;2022-11-15T10:48:47;0.20;;;0.20;;
62927;SDS011;51070;52.236;-0.892;2022-11-15T10:51:22;0.20;;;0.10;;
62927;SDS011;51070;52.236;-0.892;2022-11-15T10:53:56;0.50;;;0.40;;
62927;SDS011;51070;52.236;-0.892;2022-11-15T10:56:25;0.30;;;0.30;;
62927;SDS011;51070;52.236;-0.892;2022-11-15T10:58:55;2.00;;;0.30;;
62927;SDS011;51070;52.236;-0.892;2022-11-15T11:01:23;0.50;;;0.20;;
62927;SDS011;51070;52.236;-0.892;2022-11-15T11:04:04;0.30;;;0.30;;
62927;SDS011;51070;52.236;-0.892;2022-11-15T11:12:03;1.00;;;0.30;;
62927;SDS011;51070;52.236;-0.892;2022-11-15T11:14:31;0.80;;;0.30;;
62927;SDS011;51070;52.236;-0.892;2022-11-15T11:25:16;0.70;;;0.40;;
62927;SDS011;51070;52.236;-0.892;2022-11-15T11:28:05;0.40;;;0.10;;
62927;SDS011;51070;52.236;-0.892;2022-11-15T11:30:47;2.60;;;0.30;;
62927;SDS011;51070;52.236;-0.892;2022-11-15T11:33:40;0.50;;;0.40;;
62927;SDS011;51070;52.236;-0.892;2022-11-15T11:36:22;0.20;;;0.20;;
62927;SDS011;51070;52.236;-0.892;2022-11-15T11:39:08;1.20;;;0.40;;
62927;SDS011;51070;52.236;-0.892;2022-11-15T11:49:51;0.40;;;0.30;;
62927;SDS011;51070;52.236;-0.892;2022-11-15T11:55:10;1.20;;;0.40;;
62927;SDS011;51070;52.236;-0.892;2022-11-15T12:00:23;1.40;;;0.60;;
62927;SDS011;51070;52.236;-0.892;2022-11-15T12:03:02;1.80;;;0.60;;
62927;SDS011;51070;52.236;-0.892;2022-11-15T12:11:28;1.40;;;0.50;;
62927;SDS011;51070;52.236;-0.892;2022-11-15T12:13:50;0.50;;;0.20;;
62927;SDS011;51070;52.236;-0.892;2022-11-15T12:16:26;0.20;;;0.20;;
62927;SDS011;51070;52.236;-0.892;2022-11-15T12:18:54;18.30;;;1.00;;
62927;SDS011;51070;52.236;-0.892;2022-11-15T12:21:25;1.90;;;0.80;;
62927;SDS011;51070;52.236;-0.892;2022-11-15T12:23:54;4.90;;;2.20;;
62927;SDS011;51070;52.236;-0.892;2022-11-15T12:26:26;2.90;;;1.70;;
62927;SDS011;51070;52.236;-0.892;2022-11-15T12:29:03;1.20;;;0.50;;
62927;SDS011;51070;52.236;-0.892;2022-11-15T12:31:39;1.20;;;0.60;;
62927;SDS011;51070;52.236;-0.892;2022-11-15T12:39:14;0.40;;;0.40;;
62927;SDS011;51070;52.236;-0.892;2022-11-15T12:57:21;1.50;;;0.80;;
62927;SDS011;51070;52.236;-0.892;2022-11-15T13:12:58;0.60;;;0.40;;
62927;SDS011;51070;52.236;-0.892;2022-11-15T13:18:25;1.20;;;0.70;;
62927;SDS011;51070;52.236;-0.892;2022-11-15T13:20:54;0.80;;;0.50;;
62927;SDS011;51070;52.236;-0.892;2022-11-15T13:23:19;2.00;;;0.80;;
62927;SDS011;51070;52.236;-0.892;2022-11-15T13:31:19;0.60;;;0.40;;
62927;SDS011;51070;52.236;-0.892;2022-11-15T13:33:46;0.70;;;0.40;;
62927;SDS011;51070;52.236;-0.892;2022-11-15T13:36:15;1.50;;;0.70;;
62927;SDS011;51070;52.236;-0.892;2022-11-15T13:38:44;0.80;;;0.50;;
62927;SDS011;51070;52.236;-0.892;2022-11-15T13:43:49;0.60;;;0.30;;
62927;SDS011;51070;52.236;-0.892;2022-11-15T13:48:45;12.80;;;2.80;;
62927;SDS011;51070;52.236;-0.892;2022-11-15T13:51:20;1.10;;;0.30;;
62927;SDS011;51070;52.236;-0.892;2022-11-15T13:53:51;0.30;;;0.20;;
62927;SDS011;51070;52.236;-0.892;2022-11-15T13:56:27;0.40;;;0.20;;
62927;SDS011;51070;52.236;-0.892;2022-11-15T13:58:54;0.00;;;0.00;;
62927;SDS011;51070;52.236;-0.892;2022-11-15T14:01:20;0.30;;;0.20;;
62927;SDS011;51070;52.236;-0.892;2022-11-15T14:03:48;0.30;;;0.30;;
62927;SDS011;51070;52.236;-0.892;2022-11-15T14:06:25;1.60;;;0.40;;
62927;SDS011;51070;52.236;-0.892;2022-11-15T14:09:02;0.30;;;0.30;;
62927;SDS011;51070;52.236;-0.892;2022-11-15T14:11:33;0.90;;;0.30;;
62927;SDS011;51070;52.236;-0.892;2022-11-15T14:14:04;0.70;;;0.40;;
62927;SDS011;51070;52.236;-0.892;2022-11-15T14:16:34;0.50;;;0.50;;
62927;SDS011;51070;52.236;-0.892;2022-11-15T14:21:27;1.30;;;0.60;;
62927;SDS011;51070;52.236;-0.892;2022-11-15T14:24:13;0.60;;;0.40;;
62927;SDS011;51070;52.236;-0.892;2022-11-15T14:26:39;0.90;;;0.60;;
62927;SDS011;51070;52.236;-0.892;2022-11-15T14:34:19;1.30;;;0.60;;
62927;SDS011;51070;52.236;-0.892;2022-11-15T14:36:47;1.20;;;0.70;;
62927;SDS011;51070;52.236;-0.892;2022-11-15T14:39:13;0.30;;;0.20;;
62927;SDS011;51070;52.236;-0.892;2022-11-15T14:41:38;0.50;;;0.40;;
62927;SDS011;51070;52.236;-0.892;2022-11-15T14:44:04;1.50;;;0.60;;
62927;SDS011;51070;52.236;-0.892;2022-11-15T14:46:30;0.60;;;0.30;;
62927;SDS011;51070;52.236;-0.892;2022-11-15T14:48:56;0.40;;;0.20;;
62927;SDS011;51070;52.236;-0.892;2022-11-15T14:51:22;0.50;;;0.30;;
62927;SDS011;51070;52.236;-0.892;2022-11-15T14:53:48;0.40;;;0.40;;
62927;SDS011;51070;52.236;-0.892;2022-11-15T14:56:13;1.10;;;0.30;;
62927;SDS011;51070;52.236;-0.892;2022-11-15T14:58:41;0.50;;;0.30;;
62927;SDS011;51070;52.236;-0.892;2022-11-15T15:01:13;0.50;;;0.30;;
62927;SDS011;51070;52.236;-0.892;2022-11-15T15:03:44;1.00;;;0.50;;
62927;SDS011;51070;52.236;-0.892;2022-11-15T15:06:10;1.20;;;0.60;;
62927;SDS011;51070;52.236;-0.892;2022-11-15T15:08:37;0.60;;;0.40;;
62927;SDS011;51070;52.236;-0.892;2022-11-15T15:11:06;0.30;;;0.30;;
62927;SDS011;51070;52.236;-0.892;2022-11-15T15:13:38;0.40;;;0.30;;
62927;SDS011;51070;52.236;-0.892;2022-11-15T15:16:04;0.80;;;0.60;;
62927;SDS011;51070;52.236;-0.892;2022-11-15T15:18:29;2.90;;;0.60;;
62927;SDS011;51070;52.236;-0.892;2022-11-15T15:20:56;1.00;;;0.40;;
62927;SDS011;51070;52.236;-0.892;2022-11-15T15:23:27;1.10;;;0.60;;
62927;SDS011;51070;52.236;-0.892;2022-11-15T15:25:55;0.90;;;0.40;;
62927;SDS011;51070;52.236;-0.892;2022-11-15T15:28:21;1.10;;;0.70;;
62927;SDS011;51070;52.236;-0.892;2022-11-15T15:30:47;1.10;;;0.70;;
62927;SDS011;51070;52.236;-0.892;2022-11-15T15:33:12;1.90;;;0.70;;
62927;SDS011;51070;52.236;-0.892;2022-11-15T15:35:38;1.20;;;0.80;;
62927;SDS011;51070;52.236;-0.892;2022-11-15T15:38:03;1.40;;;0.80;;
62927;SDS011;51070;52.236;-0.892;2022-11-15T15:40:29;1.40;;;0.70;;
62927;SDS011;51070;52.236;-0.892;2022-11-15T15:42:57;1.60;;;0.80;;
62927;SDS011;51070;52.236;-0.892;2022-11-15T15:45:22;2.60;;;0.90;;
62927;SDS011;51070;52.236;-0.892;2022-11-15T15:47:50;2.90;;;0.60;;
62927;SDS011;51070;52.236;-0.892;2022-11-15T15:50:24;1.60;;;1.00;;
62927;SDS011;51070;52.236;-0.892;2022-11-15T15:52:50;0.60;;;0.60;;
62927;SDS011;51070;52.236;-0.892;2022-11-15T15:55:17;1.60;;;0.80;;
62927;SDS011;51070;52.236;-0.892;2022-11-15T15:57:42;2.00;;;0.90;;
62927;SDS011;51070;52.236;-0.892;2022-11-15T16:00:08;1.40;;;0.90;;
62927;SDS011;51070;52.236;-0.892;2022-11-15T16:02:34;1.20;;;1.00;;
62927;SDS011;51070;52.236;-0.892;2022-11-15T16:05:00;3.80;;;1.10;;
62927;SDS011;51070;52.236;-0.892;2022-11-15T16:07:25;3.10;;;1.10;;
62927;SDS011;51070;52.236;-0.892;2022-11-15T16:09:53;2.50;;;1.10;;
62927;SDS011;51070;52.236;-0.892;2022-11-15T16:12:32;1.20;;;0.90;;
62927;SDS011;51070;52.236;-0.892;2022-11-15T16:14:59;2.70;;;1.00;;
62927;SDS011;51070;52.236;-0.892;2022-11-15T16:17:33;3.20;;;1.10;;
62927;SDS011;51070;52.236;-0.892;2022-11-15T16:20:02;2.70;;;1.10;;
62927;SDS011;51070;52.236;-0.892;2022-11-15T16:22:29;3.00;;;1.20;;
62927;SDS011;51070;52.236;-0.892;2022-11-15T16:24:55;1.90;;;1.00;;
62927;SDS011;51070;52.236;-0.892;2022-11-15T16:27:21;0.90;;;0.70;;
62927;SDS011;51070;52.236;-0.892;2022-11-15T16:29:47;3.90;;;1.10;;
62927;SDS011;51070;52.236;-0.892;2022-11-15T16:32:13;2.00;;;0.90;;
62927;SDS011;51070;52.236;-0.892;2022-11-15T16:34:39;2.30;;;0.80;;
62927;SDS011;51070;52.236;-0.892;2022-11-15T16:37:04;1.30;;;0.70;;
62927;SDS011;51070;52.236;-0.892;2022-11-15T16:39:30;3.00;;;1.10;;
62927;SDS011;51070;52.236;-0.892;2022-11-15T16:41:59;5.60;;;1.00;;
62927;SDS011;51070;52.236;-0.892;2022-11-15T16:44:25;0.90;;;0.90;;
62927;SDS011;51070;52.236;-0.892;2022-11-15T16:46:50;1.40;;;1.00;;
62927;SDS011;51070;52.236;-0.892;2022-11-15T16:49:16;1.40;;;0.90;;
62927;SDS011;51070;52.236;-0.892;2022-11-15T16:51:48;3.80;;;1.40;;
62927;SDS011;51070;52.236;-0.892;2022-11-15T16:54:14;3.50;;;1.50;;
62927;SDS011;51070;52.236;-0.892;2022-11-15T16:56:40;4.30;;;1.00;;
62927;SDS011;51070;52.236;-0.892;2022-11-15T16:59:16;4.20;;;1.10;;
62927;SDS011;51070;52.236;-0.892;2022-11-15T17:01:42;2.90;;;1.00;;
62927;SDS011;51070;52.236;-0.892;2022-11-15T17:04:18;2.00;;;1.10;;
62927;SDS011;51070;52.236;-0.892;2022-11-15T17:06:46;2.50;;;0.70;;
62927;SDS011;51070;52.236;-0.892;2022-11-15T17:09:16;3.40;;;1.00;;
62927;SDS011;51070;52.236;-0.892;2022-11-15T17:11:44;2.60;;;0.90;;
62927;SDS011;51070;52.236;-0.892;2022-11-15T17:14:10;1.80;;;0.80;;